sensor_id;sensor_type;location;lat;lon;timestamp;temperature;humidity
23087;DHT22;11712;51.134;4.156;2022-11-20T00:01:22;5.70;99.90
23087;DHT22;11712;51.134;4.156;2022-11-20T00:03:48;5.50;99.90
23087;DHT22;11712;51.134;4.156;2022-11-20T00:06:18;5.60;99.90
23087;DHT22;11712;51.134;4.156;2022-11-20T00:08:44;5.60;99.90
23087;DHT22;11712;51.134;4.156;2022-11-20T00:11:15;5.60;99.90
23087;DHT22;11712;51.134;4.156;2022-11-20T00:13:41;5.50;99.90
23087;DHT22;11712;51.134;4.156;2022-11-20T00:16:09;5.70;99.90
23087;DHT22;11712;51.134;4.156;2022-11-20T00:18:36;5.80;99.90
23087;DHT22;11712;51.134;4.156;2022-11-20T00:21:22;5.90;99.90
23087;DHT22;11712;51.134;4.156;2022-11-20T00:23:48;6.10;99.90
23087;DHT22;11712;51.134;4.156;2022-11-20T00:26:16;6.30;99.90
23087;DHT22;11712;51.134;4.156;2022-11-20T00:28:44;6.30;99.90
23087;DHT22;11712;51.134;4.156;2022-11-20T00:31:12;6.20;99.90
23087;DHT22;11712;51.134;4.156;2022-11-20T00:33:39;6.00;99.90
23087;DHT22;11712;51.134;4.156;2022-11-20T00:36:15;5.80;99.90
23087;DHT22;11712;51.134;4.156;2022-11-20T00:38:41;5.90;99.90
23087;DHT22;11712;51.134;4.156;2022-11-20T00:41:09;5.80;99.90
23087;DHT22;11712;51.134;4.156;2022-11-20T00:45:18;5.80;99.90
23087;DHT22;11712;51.134;4.156;2022-11-20T00:47:43;5.80;99.90
23087;DHT22;11712;51.134;4.156;2022-11-20T00:50:09;5.70;99.90
23087;DHT22;11712;51.134;4.156;2022-11-20T00:52:34;5.50;99.90
23087;DHT22;11712;51.134;4.156;2022-11-20T00:55:00;5.50;99.90
23087;DHT22;11712;51.134;4.156;2022-11-20T00:57:26;5.40;99.90
23087;DHT22;11712;51.134;4.156;2022-11-20T00:59:51;5.30;99.90
23087;DHT22;11712;51.134;4.156;2022-11-20T01:02:17;5.30;99.90
23087;DHT22;11712;51.134;4.156;2022-11-20T01:04:42;5.30;99.90
23087;DHT22;11712;51.134;4.156;2022-11-20T01:07:08;5.30;99.90
23087;DHT22;11712;51.134;4.156;2022-11-20T01:09:34;5.60;99.90
23087;DHT22;11712;51.134;4.156;2022-11-20T01:11:59;5.60;99.90
23087;DHT22;11712;51.134;4.156;2022-11-20T01:14:25;5.80;99.90
23087;DHT22;11712;51.134;4.156;2022-11-20T01:16:51;5.80;99.90
23087;DHT22;11712;51.134;4.156;2022-11-20T01:19:20;6.00;99.90
23087;DHT22;11712;51.134;4.156;2022-11-20T01:21:49;6.10;99.90
23087;DHT22;11712;51.134;4.156;2022-11-20T01:24:17;6.20;99.90
23087;DHT22;11712;51.134;4.156;2022-11-20T01:26:44;6.10;99.90
23087;DHT22;11712;51.134;4.156;2022-11-20T01:29:22;5.60;99.90
23087;DHT22;11712;51.134;4.156;2022-11-20T01:31:48;5.60;99.90
23087;DHT22;11712;51.134;4.156;2022-11-20T01:34:15;5.40;99.90
23087;DHT22;11712;51.134;4.156;2022-11-20T01:36:42;5.20;99.90
23087;DHT22;11712;51.134;4.156;2022-11-20T01:39:28;5.50;99.90
23087;DHT22;11712;51.134;4.156;2022-11-20T01:41:55;5.80;99.90
23087;DHT22;11712;51.134;4.156;2022-11-20T01:45:00;5.70;99.90
23087;DHT22;11712;51.134;4.156;2022-11-20T01:47:39;5.70;99.90
23087;DHT22;11712;51.134;4.156;2022-11-20T01:50:14;5.70;99.90
23087;DHT22;11712;51.134;4.156;2022-11-20T01:52:47;5.70;99.90
23087;DHT22;11712;51.134;4.156;2022-11-20T01:55:21;5.50;99.90
23087;DHT22;11712;51.134;4.156;2022-11-20T01:57:48;5.30;99.90
23087;DHT22;11712;51.134;4.156;2022-11-20T02:00:16;5.20;99.90
23087;DHT22;11712;51.134;4.156;2022-11-20T02:02:46;5.20;99.90
23087;DHT22;11712;51.134;4.156;2022-11-20T02:05:23;5.20;99.90
23087;DHT22;11712;51.134;4.156;2022-11-20T02:07:49;5.30;99.90
23087;DHT22;11712;51.134;4.156;2022-11-20T02:10:16;5.30;99.90
23087;DHT22;11712;51.134;4.156;2022-11-20T02:12:41;5.20;99.90
23087;DHT22;11712;51.134;4.156;2022-11-20T02:15:25;5.50;99.90
23087;DHT22;11712;51.134;4.156;2022-11-20T02:17:51;5.20;99.90
23087;DHT22;11712;51.134;4.156;2022-11-20T02:20:17;5.30;99.90
23087;DHT22;11712;51.134;4.156;2022-11-20T02:22:54;5.30;99.90
23087;DHT22;11712;51.134;4.156;2022-11-20T02:25:21;5.40;99.90
23087;DHT22;11712;51.134;4.156;2022-11-20T02:27:49;5.40;99.90
23087;DHT22;11712;51.134;4.156;2022-11-20T02:30:14;5.40;99.90
23087;DHT22;11712;51.134;4.156;2022-11-20T02:32:40;5.30;99.90
23087;DHT22;11712;51.134;4.156;2022-11-20T02:37:37;5.20;99.90
23087;DHT22;11712;51.134;4.156;2022-11-20T02:40:03;5.20;99.90
23087;DHT22;11712;51.134;4.156;2022-11-20T02:42:29;5.20;99.90
23087;DHT22;11712;51.134;4.156;2022-11-20T02:46:57;5.10;99.90
23087;DHT22;11712;51.134;4.156;2022-11-20T02:49:23;5.00;99.90
23087;DHT22;11712;51.134;4.156;2022-11-20T02:51:49;5.00;99.90
23087;DHT22;11712;51.134;4.156;2022-11-20T02:54:14;5.10;99.90
23087;DHT22;11712;51.134;4.156;2022-11-20T02:56:40;5.10;99.90
23087;DHT22;11712;51.134;4.156;2022-11-20T03:01:12;5.10;99.90
23087;DHT22;11712;51.134;4.156;2022-11-20T03:03:38;5.10;99.90
23087;DHT22;11712;51.134;4.156;2022-11-20T03:06:03;5.00;99.90
23087;DHT22;11712;51.134;4.156;2022-11-20T03:08:29;5.00;99.90
23087;DHT22;11712;51.134;4.156;2022-11-20T03:10:55;4.90;99.90
23087;DHT22;11712;51.134;4.156;2022-11-20T03:13:21;4.80;99.90
23087;DHT22;11712;51.134;4.156;2022-11-20T03:15:46;4.90;99.90
23087;DHT22;11712;51.134;4.156;2022-11-20T03:18:12;4.90;99.90
23087;DHT22;11712;51.134;4.156;2022-11-20T03:20:39;4.90;99.90
23087;DHT22;11712;51.134;4.156;2022-11-20T03:23:04;5.00;99.90
23087;DHT22;11712;51.134;4.156;2022-11-20T03:25:30;5.00;99.90
23087;DHT22;11712;51.134;4.156;2022-11-20T03:27:56;4.90;99.90
23087;DHT22;11712;51.134;4.156;2022-11-20T03:30:22;4.90;99.90
23087;DHT22;11712;51.134;4.156;2022-11-20T03:32:47;4.90;99.90
23087;DHT22;11712;51.134;4.156;2022-11-20T03:35:13;5.10;99.90
23087;DHT22;11712;51.134;4.156;2022-11-20T03:37:39;5.00;99.90
23087;DHT22;11712;51.134;4.156;2022-11-20T03:40:05;5.10;99.90
23087;DHT22;11712;51.134;4.156;2022-11-20T03:42:31;4.90;99.90
23087;DHT22;11712;51.134;4.156;2022-11-20T03:45:17;5.00;99.90
23087;DHT22;11712;51.134;4.156;2022-11-20T03:47:43;5.20;99.90
23087;DHT22;11712;51.134;4.156;2022-11-20T03:50:10;5.40;99.90
23087;DHT22;11712;51.134;4.156;2022-11-20T03:52:35;5.30;99.90
23087;DHT22;11712;51.134;4.156;2022-11-20T03:55:01;5.40;99.90
23087;DHT22;11712;51.134;4.156;2022-11-20T03:57:27;5.40;99.90
23087;DHT22;11712;51.134;4.156;2022-11-20T03:59:53;5.20;99.90
23087;DHT22;11712;51.134;4.156;2022-11-20T04:02:18;5.40;99.90
23087;DHT22;11712;51.134;4.156;2022-11-20T04:04:44;5.40;99.90
23087;DHT22;11712;51.134;4.156;2022-11-20T04:07:10;5.20;99.90
23087;DHT22;11712;51.134;4.156;2022-11-20T04:09:35;5.20;99.90
23087;DHT22;11712;51.134;4.156;2022-11-20T04:12:01;5.20;99.90
23087;DHT22;11712;51.134;4.156;2022-11-20T04:14:26;5.20;99.90
23087;DHT22;11712;51.134;4.156;2022-11-20T04:16:52;5.20;99.90
23087;DHT22;11712;51.134;4.156;2022-11-20T04:19:18;5.10;99.90
23087;DHT22;11712;51.134;4.156;2022-11-20T04:21:44;4.90;99.90
23087;DHT22;11712;51.134;4.156;2022-11-20T04:24:10;4.70;99.90
23087;DHT22;11712;51.134;4.156;2022-11-20T04:26:36;4.70;99.90
23087;DHT22;11712;51.134;4.156;2022-11-20T04:29:02;4.40;99.90
23087;DHT22;11712;51.134;4.156;2022-11-20T04:31:29;4.40;99.90
23087;DHT22;11712;51.134;4.156;2022-11-20T04:33:59;4.30;99.90
23087;DHT22;11712;51.134;4.156;2022-11-20T04:36:26;4.40;99.90
23087;DHT22;11712;51.134;4.156;2022-11-20T04:38:53;4.70;99.90
23087;DHT22;11712;51.134;4.156;2022-11-20T04:41:20;5.00;99.90
23087;DHT22;11712;51.134;4.156;2022-11-20T04:43:47;5.00;99.90
23087;DHT22;11712;51.134;4.156;2022-11-20T04:46:14;4.80;99.90
23087;DHT22;11712;51.134;4.156;2022-11-20T04:48:40;4.80;99.90
23087;DHT22;11712;51.134;4.156;2022-11-20T04:51:06;4.90;99.90
23087;DHT22;11712;51.134;4.156;2022-11-20T04:53:31;5.10;99.90
23087;DHT22;11712;51.134;4.156;2022-11-20T04:56:01;5.20;99.90
23087;DHT22;11712;51.134;4.156;2022-11-20T04:58:27;5.20;99.90
23087;DHT22;11712;51.134;4.156;2022-11-20T05:00:53;5.10;99.90
23087;DHT22;11712;51.134;4.156;2022-11-20T05:03:18;5.20;99.90
23087;DHT22;11712;51.134;4.156;2022-11-20T05:05:44;5.20;99.90
23087;DHT22;11712;51.134;4.156;2022-11-20T05:08:09;5.40;99.90
23087;DHT22;11712;51.134;4.156;2022-11-20T05:10:35;5.70;99.90
23087;DHT22;11712;51.134;4.156;2022-11-20T05:13:01;5.80;99.90
23087;DHT22;11712;51.134;4.156;2022-11-20T05:15:26;5.80;99.90
23087;DHT22;11712;51.134;4.156;2022-11-20T05:19:49;6.00;99.90
23087;DHT22;11712;51.134;4.156;2022-11-20T05:22:15;6.00;99.90
23087;DHT22;11712;51.134;4.156;2022-11-20T05:24:41;5.90;99.90
23087;DHT22;11712;51.134;4.156;2022-11-20T05:27:07;5.70;99.90
23087;DHT22;11712;51.134;4.156;2022-11-20T05:29:32;5.60;99.90
23087;DHT22;11712;51.134;4.156;2022-11-20T05:31:59;5.70;99.90
23087;DHT22;11712;51.134;4.156;2022-11-20T05:34:24;5.50;99.90
23087;DHT22;11712;51.134;4.156;2022-11-20T05:36:50;5.70;99.90
23087;DHT22;11712;51.134;4.156;2022-11-20T05:39:16;5.80;99.90
23087;DHT22;11712;51.134;4.156;2022-11-20T05:41:41;5.80;99.90
23087;DHT22;11712;51.134;4.156;2022-11-20T05:44:10;5.90;99.90
23087;DHT22;11712;51.134;4.156;2022-11-20T05:46:36;5.90;99.90
23087;DHT22;11712;51.134;4.156;2022-11-20T05:49:02;6.10;99.90
23087;DHT22;11712;51.134;4.156;2022-11-20T05:51:28;5.90;99.90
23087;DHT22;11712;51.134;4.156;2022-11-20T05:53:55;5.50;99.90
23087;DHT22;11712;51.134;4.156;2022-11-20T05:56:21;5.30;99.90
23087;DHT22;11712;51.134;4.156;2022-11-20T05:58:47;5.40;99.90
23087;DHT22;11712;51.134;4.156;2022-11-20T06:01:25;5.50;99.90
23087;DHT22;11712;51.134;4.156;2022-11-20T06:03:52;5.50;99.90
23087;DHT22;11712;51.134;4.156;2022-11-20T06:06:19;5.70;99.90
23087;DHT22;11712;51.134;4.156;2022-11-20T06:08:45;5.80;99.90
23087;DHT22;11712;51.134;4.156;2022-11-20T06:11:12;5.70;99.90
23087;DHT22;11712;51.134;4.156;2022-11-20T06:13:38;5.60;99.90
23087;DHT22;11712;51.134;4.156;2022-11-20T06:16:04;5.50;99.90
23087;DHT22;11712;51.134;4.156;2022-11-20T06:18:30;5.40;99.90
23087;DHT22;11712;51.134;4.156;2022-11-20T06:21:19;5.40;99.90
23087;DHT22;11712;51.134;4.156;2022-11-20T06:23:46;5.60;99.90
23087;DHT22;11712;51.134;4.156;2022-11-20T06:26:20;5.70;99.90
23087;DHT22;11712;51.134;4.156;2022-11-20T06:28:46;5.80;99.90
23087;DHT22;11712;51.134;4.156;2022-11-20T06:31:14;5.90;99.90
23087;DHT22;11712;51.134;4.156;2022-11-20T06:33:41;5.90;99.90
23087;DHT22;11712;51.134;4.156;2022-11-20T06:36:07;5.90;99.90
23087;DHT22;11712;51.134;4.156;2022-11-20T06:38:32;5.90;99.90
23087;DHT22;11712;51.134;4.156;2022-11-20T06:40:58;6.10;99.90
23087;DHT22;11712;51.134;4.156;2022-11-20T06:43:24;6.30;99.90
23087;DHT22;11712;51.134;4.156;2022-11-20T06:46:43;6.20;99.90
23087;DHT22;11712;51.134;4.156;2022-11-20T06:49:08;6.20;99.90
23087;DHT22;11712;51.134;4.156;2022-11-20T06:53:08;6.40;99.90
23087;DHT22;11712;51.134;4.156;2022-11-20T06:55:33;6.40;99.90
23087;DHT22;11712;51.134;4.156;2022-11-20T06:58:16;6.10;99.90
23087;DHT22;11712;51.134;4.156;2022-11-20T07:00:42;6.30;99.90
23087;DHT22;11712;51.134;4.156;2022-11-20T07:03:10;6.30;99.90
23087;DHT22;11712;51.134;4.156;2022-11-20T07:05:36;6.30;99.90
23087;DHT22;11712;51.134;4.156;2022-11-20T07:08:04;6.40;99.90
23087;DHT22;11712;51.134;4.156;2022-11-20T07:10:30;6.60;99.90
23087;DHT22;11712;51.134;4.156;2022-11-20T07:12:55;6.60;99.90
23087;DHT22;11712;51.134;4.156;2022-11-20T07:15:23;6.30;99.90
23087;DHT22;11712;51.134;4.156;2022-11-20T07:17:49;6.30;99.90
23087;DHT22;11712;51.134;4.156;2022-11-20T07:20:15;6.30;99.90
23087;DHT22;11712;51.134;4.156;2022-11-20T07:22:41;6.50;99.90
23087;DHT22;11712;51.134;4.156;2022-11-20T07:25:08;6.40;99.90
23087;DHT22;11712;51.134;4.156;2022-11-20T07:27:34;6.30;99.90
23087;DHT22;11712;51.134;4.156;2022-11-20T07:30:00;6.40;99.90
23087;DHT22;11712;51.134;4.156;2022-11-20T07:32:25;6.50;99.90
23087;DHT22;11712;51.134;4.156;2022-11-20T07:34:51;6.50;99.90
23087;DHT22;11712;51.134;4.156;2022-11-20T07:37:17;6.50;99.90
23087;DHT22;11712;51.134;4.156;2022-11-20T07:39:43;6.50;99.90
23087;DHT22;11712;51.134;4.156;2022-11-20T07:42:09;6.60;99.90
23087;DHT22;11712;51.134;4.156;2022-11-20T07:44:35;6.80;99.90
23087;DHT22;11712;51.134;4.156;2022-11-20T07:47:01;6.80;99.90
23087;DHT22;11712;51.134;4.156;2022-11-20T07:49:27;6.80;99.90
23087;DHT22;11712;51.134;4.156;2022-11-20T07:51:53;6.90;99.90
23087;DHT22;11712;51.134;4.156;2022-11-20T07:54:22;6.90;99.90
23087;DHT22;11712;51.134;4.156;2022-11-20T07:56:50;6.80;99.90
23087;DHT22;11712;51.134;4.156;2022-11-20T07:59:16;6.50;99.90
23087;DHT22;11712;51.134;4.156;2022-11-20T08:01:42;6.50;99.90
23087;DHT22;11712;51.134;4.156;2022-11-20T08:04:09;6.40;99.90
23087;DHT22;11712;51.134;4.156;2022-11-20T08:06:35;6.30;99.90
23087;DHT22;11712;51.134;4.156;2022-11-20T08:09:01;6.40;99.90
23087;DHT22;11712;51.134;4.156;2022-11-20T08:11:27;6.60;99.90
23087;DHT22;11712;51.134;4.156;2022-11-20T08:14:11;6.60;99.90
23087;DHT22;11712;51.134;4.156;2022-11-20T08:16:44;6.60;99.90
23087;DHT22;11712;51.134;4.156;2022-11-20T08:19:10;6.60;99.90
23087;DHT22;11712;51.134;4.156;2022-11-20T08:21:36;6.70;99.90
23087;DHT22;11712;51.134;4.156;2022-11-20T08:24:02;6.70;99.90
23087;DHT22;11712;51.134;4.156;2022-11-20T08:26:27;6.70;99.90
23087;DHT22;11712;51.134;4.156;2022-11-20T08:28:54;6.70;99.90
23087;DHT22;11712;51.134;4.156;2022-11-20T08:31:20;6.70;99.90
23087;DHT22;11712;51.134;4.156;2022-11-20T08:33:47;6.80;99.90
23087;DHT22;11712;51.134;4.156;2022-11-20T08:36:12;6.70;99.90
23087;DHT22;11712;51.134;4.156;2022-11-20T08:38:38;6.60;99.90
23087;DHT22;11712;51.134;4.156;2022-11-20T08:41:05;6.60;99.90
23087;DHT22;11712;51.134;4.156;2022-11-20T08:43:49;6.60;99.90
23087;DHT22;11712;51.134;4.156;2022-11-20T08:46:16;6.70;99.90
23087;DHT22;11712;51.134;4.156;2022-11-20T08:48:42;6.60;99.90
23087;DHT22;11712;51.134;4.156;2022-11-20T08:51:08;6.70;99.90
23087;DHT22;11712;51.134;4.156;2022-11-20T08:53:34;6.70;99.90
23087;DHT22;11712;51.134;4.156;2022-11-20T08:56:00;7.00;99.90
23087;DHT22;11712;51.134;4.156;2022-11-20T08:58:26;6.90;99.90
23087;DHT22;11712;51.134;4.156;2022-11-20T09:00:52;7.10;99.90
23087;DHT22;11712;51.134;4.156;2022-11-20T09:03:18;7.30;99.90
23087;DHT22;11712;51.134;4.156;2022-11-20T09:05:44;7.20;99.90
23087;DHT22;11712;51.134;4.156;2022-11-20T09:08:09;7.10;99.90
23087;DHT22;11712;51.134;4.156;2022-11-20T09:10:35;7.30;99.90
23087;DHT22;11712;51.134;4.156;2022-11-20T09:13:02;7.40;99.90
23087;DHT22;11712;51.134;4.156;2022-11-20T09:15:28;7.60;99.90
23087;DHT22;11712;51.134;4.156;2022-11-20T09:17:58;7.30;99.90
23087;DHT22;11712;51.134;4.156;2022-11-20T09:20:25;7.00;99.90
23087;DHT22;11712;51.134;4.156;2022-11-20T09:22:51;7.20;99.90
23087;DHT22;11712;51.134;4.156;2022-11-20T09:25:17;7.30;99.90
23087;DHT22;11712;51.134;4.156;2022-11-20T09:27:43;7.50;99.90
23087;DHT22;11712;51.134;4.156;2022-11-20T09:30:12;7.80;99.90
23087;DHT22;11712;51.134;4.156;2022-11-20T09:32:44;7.70;99.90
23087;DHT22;11712;51.134;4.156;2022-11-20T09:35:10;7.60;99.90
23087;DHT22;11712;51.134;4.156;2022-11-20T09:37:36;7.70;99.90
23087;DHT22;11712;51.134;4.156;2022-11-20T09:40:01;7.70;99.90
23087;DHT22;11712;51.134;4.156;2022-11-20T09:42:32;7.80;99.90
23087;DHT22;11712;51.134;4.156;2022-11-20T09:56:09;8.20;99.90
23087;DHT22;11712;51.134;4.156;2022-11-20T09:58:42;8.30;99.90
23087;DHT22;11712;51.134;4.156;2022-11-20T10:01:23;8.30;99.90
23087;DHT22;11712;51.134;4.156;2022-11-20T10:04:06;8.30;99.90
23087;DHT22;11712;51.134;4.156;2022-11-20T10:09:32;8.40;99.90
23087;DHT22;11712;51.134;4.156;2022-11-20T10:19:56;8.70;99.90
23087;DHT22;11712;51.134;4.156;2022-11-20T10:25:20;8.80;99.90
23087;DHT22;11712;51.134;4.156;2022-11-20T10:28:21;8.70;99.90
23087;DHT22;11712;51.134;4.156;2022-11-20T10:31:07;8.80;99.90
23087;DHT22;11712;51.134;4.156;2022-11-20T10:33:36;9.10;99.90
23087;DHT22;11712;51.134;4.156;2022-11-20T10:38:45;9.40;99.90
23087;DHT22;11712;51.134;4.156;2022-11-20T10:41:32;9.50;99.90
23087;DHT22;11712;51.134;4.156;2022-11-20T10:46:25;9.50;99.90
23087;DHT22;11712;51.134;4.156;2022-11-20T10:48:55;9.40;99.90
23087;DHT22;11712;51.134;4.156;2022-11-20T10:51:46;9.50;99.90
23087;DHT22;11712;51.134;4.156;2022-11-20T10:57:25;9.60;99.90
23087;DHT22;11712;51.134;4.156;2022-11-20T11:00:13;9.50;99.90
23087;DHT22;11712;51.134;4.156;2022-11-20T11:02:49;9.30;99.90
23087;DHT22;11712;51.134;4.156;2022-11-20T11:05:37;9.40;99.90
23087;DHT22;11712;51.134;4.156;2022-11-20T11:08:10;9.30;99.90
23087;DHT22;11712;51.134;4.156;2022-11-20T11:11:25;9.40;99.90
23087;DHT22;11712;51.134;4.156;2022-11-20T11:13:50;9.50;99.90
23087;DHT22;11712;51.134;4.156;2022-11-20T11:16:23;9.50;99.90
23087;DHT22;11712;51.134;4.156;2022-11-20T11:18:49;9.90;99.90
23087;DHT22;11712;51.134;4.156;2022-11-20T11:21:24;10.00;99.90
23087;DHT22;11712;51.134;4.156;2022-11-20T11:24:01;10.10;99.90
23087;DHT22;11712;51.134;4.156;2022-11-20T11:26:28;10.20;99.90
23087;DHT22;11712;51.134;4.156;2022-11-20T11:29:04;10.50;99.90
23087;DHT22;11712;51.134;4.156;2022-11-20T11:31:31;10.30;99.90
23087;DHT22;11712;51.134;4.156;2022-11-20T11:34:14;10.30;99.90
23087;DHT22;11712;51.134;4.156;2022-11-20T11:36:41;10.40;99.90
23087;DHT22;11712;51.134;4.156;2022-11-20T11:39:18;10.40;99.90
23087;DHT22;11712;51.134;4.156;2022-11-20T11:41:45;10.60;99.90
23087;DHT22;11712;51.134;4.156;2022-11-20T11:46:35;10.90;99.90
23087;DHT22;11712;51.134;4.156;2022-11-20T11:52:01;10.20;99.90
23087;DHT22;11712;51.134;4.156;2022-11-20T11:54:37;10.20;99.90
23087;DHT22;11712;51.134;4.156;2022-11-20T12:00:15;9.90;99.90
23087;DHT22;11712;51.134;4.156;2022-11-20T12:02:49;9.90;99.90
23087;DHT22;11712;51.134;4.156;2022-11-20T12:08:15;9.60;99.90
23087;DHT22;11712;51.134;4.156;2022-11-20T12:13:58;9.70;99.90
23087;DHT22;11712;51.134;4.156;2022-11-20T12:16:33;9.50;99.90
23087;DHT22;11712;51.134;4.156;2022-11-20T12:19:00;9.50;99.90
23087;DHT22;11712;51.134;4.156;2022-11-20T12:21:29;9.40;99.90
23087;DHT22;11712;51.134;4.156;2022-11-20T12:37:52;8.80;99.90
23087;DHT22;11712;51.134;4.156;2022-11-20T12:43:36;8.80;99.90
23087;DHT22;11712;51.134;4.156;2022-11-20T12:46:22;9.00;99.90
23087;DHT22;11712;51.134;4.156;2022-11-20T12:51:57;8.80;99.90
23087;DHT22;11712;51.134;4.156;2022-11-20T13:07:46;9.00;99.90
23087;DHT22;11712;51.134;4.156;2022-11-20T13:10:41;9.00;99.90
23087;DHT22;11712;51.134;4.156;2022-11-20T13:16:17;9.00;99.90
23087;DHT22;11712;51.134;4.156;2022-11-20T13:18:45;9.10;99.90
23087;DHT22;11712;51.134;4.156;2022-11-20T13:21:20;9.20;99.90
23087;DHT22;11712;51.134;4.156;2022-11-20T13:23:46;9.00;99.90
23087;DHT22;11712;51.134;4.156;2022-11-20T13:26:22;8.90;99.90
23087;DHT22;11712;51.134;4.156;2022-11-20T13:29:10;8.90;99.90
23087;DHT22;11712;51.134;4.156;2022-11-20T13:31:40;8.90;99.90
23087;DHT22;11712;51.134;4.156;2022-11-20T13:34:12;9.00;99.90
23087;DHT22;11712;51.134;4.156;2022-11-20T13:36:53;9.00;99.90
23087;DHT22;11712;51.134;4.156;2022-11-20T13:39:30;9.10;99.90
23087;DHT22;11712;51.134;4.156;2022-11-20T13:42:20;9.10;99.90
23087;DHT22;11712;51.134;4.156;2022-11-20T13:44:54;9.20;99.90
23087;DHT22;11712;51.134;4.156;2022-11-20T13:47:27;9.20;99.90
23087;DHT22;11712;51.134;4.156;2022-11-20T13:49:55;9.10;99.90
23087;DHT22;11712;51.134;4.156;2022-11-20T13:52:45;9.00;99.90
23087;DHT22;11712;51.134;4.156;2022-11-20T13:59:10;8.90;99.90
23087;DHT22;11712;51.134;4.156;2022-11-20T14:01:30;8.80;99.90
23087;DHT22;11712;51.134;4.156;2022-11-20T14:04:05;8.80;99.90
23087;DHT22;11712;51.134;4.156;2022-11-20T14:06:34;8.70;99.90
23087;DHT22;11712;51.134;4.156;2022-11-20T14:09:04;8.70;99.90
23087;DHT22;11712;51.134;4.156;2022-11-20T14:11:30;8.80;99.90
23087;DHT22;11712;51.134;4.156;2022-11-20T14:14:04;8.80;99.90
23087;DHT22;11712;51.134;4.156;2022-11-20T14:16:38;8.70;99.90
23087;DHT22;11712;51.134;4.156;2022-11-20T14:19:27;8.80;99.90
23087;DHT22;11712;51.134;4.156;2022-11-20T14:22:10;8.80;99.90
23087;DHT22;11712;51.134;4.156;2022-11-20T14:24:36;8.70;99.90
23087;DHT22;11712;51.134;4.156;2022-11-20T14:27:02;8.60;99.90
23087;DHT22;11712;51.134;4.156;2022-11-20T14:29:38;8.70;99.90
23087;DHT22;11712;51.134;4.156;2022-11-20T14:32:04;8.80;99.90
23087;DHT22;11712;51.134;4.156;2022-11-20T14:34:33;8.80;99.90
23087;DHT22;11712;51.134;4.156;2022-11-20T14:37:05;8.80;99.90
23087;DHT22;11712;51.134;4.156;2022-11-20T14:39:40;8.80;99.90
23087;DHT22;11712;51.134;4.156;2022-11-20T14:42:36;8.80;99.90
23087;DHT22;11712;51.134;4.156;2022-11-20T14:45:03;8.80;99.90
23087;DHT22;11712;51.134;4.156;2022-11-20T14:47:30;8.80;99.90
23087;DHT22;11712;51.134;4.156;2022-11-20T14:49:57;8.80;99.90
23087;DHT22;11712;51.134;4.156;2022-11-20T14:52:25;8.80;99.90
23087;DHT22;11712;51.134;4.156;2022-11-20T14:54:53;8.90;99.90
23087;DHT22;11712;51.134;4.156;2022-11-20T14:59:50;8.90;99.90
23087;DHT22;11712;51.134;4.156;2022-11-20T15:02:16;9.00;99.90
23087;DHT22;11712;51.134;4.156;2022-11-20T15:04:50;9.10;99.90
23087;DHT22;11712;51.134;4.156;2022-11-20T15:07:26;9.10;99.90
23087;DHT22;11712;51.134;4.156;2022-11-20T15:10:09;9.20;99.90
23087;DHT22;11712;51.134;4.156;2022-11-20T15:13:01;9.30;99.90
23087;DHT22;11712;51.134;4.156;2022-11-20T15:15:36;9.20;99.90
23087;DHT22;11712;51.134;4.156;2022-11-20T15:18:12;9.20;99.90
23087;DHT22;11712;51.134;4.156;2022-11-20T15:20:38;9.10;99.90
23087;DHT22;11712;51.134;4.156;2022-11-20T15:23:13;9.20;99.90
23087;DHT22;11712;51.134;4.156;2022-11-20T15:25:40;9.30;99.90
23087;DHT22;11712;51.134;4.156;2022-11-20T15:28:23;9.30;99.90
23087;DHT22;11712;51.134;4.156;2022-11-20T15:30:52;9.40;99.90
23087;DHT22;11712;51.134;4.156;2022-11-20T15:33:19;9.50;99.90
23087;DHT22;11712;51.134;4.156;2022-11-20T15:35:45;9.50;99.90
23087;DHT22;11712;51.134;4.156;2022-11-20T15:38:10;9.40;99.90
23087;DHT22;11712;51.134;4.156;2022-11-20T15:40:36;9.40;99.90
23087;DHT22;11712;51.134;4.156;2022-11-20T15:43:02;9.40;99.90
23087;DHT22;11712;51.134;4.156;2022-11-20T15:45:38;9.40;99.90
23087;DHT22;11712;51.134;4.156;2022-11-20T15:48:16;9.40;99.90
23087;DHT22;11712;51.134;4.156;2022-11-20T15:50:51;9.40;99.90
23087;DHT22;11712;51.134;4.156;2022-11-20T15:53:18;9.50;99.90
23087;DHT22;11712;51.134;4.156;2022-11-20T15:55:43;9.50;99.90
23087;DHT22;11712;51.134;4.156;2022-11-20T15:58:09;9.50;99.90
23087;DHT22;11712;51.134;4.156;2022-11-20T16:00:35;9.30;99.90
23087;DHT22;11712;51.134;4.156;2022-11-20T16:03:00;9.40;99.90
23087;DHT22;11712;51.134;4.156;2022-11-20T16:05:29;9.60;99.90
23087;DHT22;11712;51.134;4.156;2022-11-20T16:07:55;9.60;99.90
23087;DHT22;11712;51.134;4.156;2022-11-20T16:10:22;9.60;99.90
23087;DHT22;11712;51.134;4.156;2022-11-20T16:12:48;9.50;99.90
23087;DHT22;11712;51.134;4.156;2022-11-20T16:15:32;9.50;99.90
23087;DHT22;11712;51.134;4.156;2022-11-20T16:18:20;9.60;99.90
23087;DHT22;11712;51.134;4.156;2022-11-20T16:20:48;9.60;99.90
23087;DHT22;11712;51.134;4.156;2022-11-20T16:23:14;9.60;99.90
23087;DHT22;11712;51.134;4.156;2022-11-20T16:25:41;9.50;99.90
23087;DHT22;11712;51.134;4.156;2022-11-20T16:28:07;9.50;99.90
23087;DHT22;11712;51.134;4.156;2022-11-20T16:30:34;9.60;99.90
23087;DHT22;11712;51.134;4.156;2022-11-20T16:33:00;9.60;99.90
23087;DHT22;11712;51.134;4.156;2022-11-20T16:35:28;9.60;99.90
23087;DHT22;11712;51.134;4.156;2022-11-20T16:37:55;9.50;99.90
23087;DHT22;11712;51.134;4.156;2022-11-20T16:40:21;9.50;99.90
23087;DHT22;11712;51.134;4.156;2022-11-20T16:42:47;9.50;99.90
23087;DHT22;11712;51.134;4.156;2022-11-20T16:46:06;9.40;99.90
23087;DHT22;11712;51.134;4.156;2022-11-20T16:48:31;9.30;99.90
23087;DHT22;11712;51.134;4.156;2022-11-20T16:50:57;9.20;99.90
23087;DHT22;11712;51.134;4.156;2022-11-20T16:53:23;9.30;99.90
23087;DHT22;11712;51.134;4.156;2022-11-20T16:55:48;9.20;99.90
23087;DHT22;11712;51.134;4.156;2022-11-20T16:58:14;9.30;99.90
23087;DHT22;11712;51.134;4.156;2022-11-20T17:00:40;9.30;99.90
23087;DHT22;11712;51.134;4.156;2022-11-20T17:03:07;9.30;99.90
23087;DHT22;11712;51.134;4.156;2022-11-20T17:05:33;9.30;99.90
23087;DHT22;11712;51.134;4.156;2022-11-20T17:07:59;9.30;99.90
23087;DHT22;11712;51.134;4.156;2022-11-20T17:10:25;9.40;99.90
23087;DHT22;11712;51.134;4.156;2022-11-20T17:12:51;9.30;99.90
23087;DHT22;11712;51.134;4.156;2022-11-20T17:15:16;9.40;99.90
23087;DHT22;11712;51.134;4.156;2022-11-20T17:17:42;9.30;99.90
23087;DHT22;11712;51.134;4.156;2022-11-20T17:20:09;9.30;99.90
23087;DHT22;11712;51.134;4.156;2022-11-20T17:22:37;9.30;99.90
23087;DHT22;11712;51.134;4.156;2022-11-20T17:25:03;9.10;99.90
23087;DHT22;11712;51.134;4.156;2022-11-20T17:27:28;9.00;99.90
23087;DHT22;11712;51.134;4.156;2022-11-20T17:29:54;9.00;99.90
23087;DHT22;11712;51.134;4.156;2022-11-20T17:32:22;9.00;99.90
23087;DHT22;11712;51.134;4.156;2022-11-20T17:34:47;9.00;99.90
23087;DHT22;11712;51.134;4.156;2022-11-20T17:37:13;8.90;99.90
23087;DHT22;11712;51.134;4.156;2022-11-20T17:39:38;8.80;99.90
23087;DHT22;11712;51.134;4.156;2022-11-20T17:42:05;8.70;99.90